Time;durP1;ratioP1;P1;durP2;ratioP2;P2;SDS_P1;SDS_P2;PMS_P1;PMS_P2;Temp;Humidity;BMP_temperature;BMP_pressure;BME280_temperature;BME280_humidity;BME280_pressure;Samples;Min_cycle;Max_cycle;Signal;HPM_P1;HPM_P2
2022/09/09 00:01:25;;;;;;;1.20;0.70;;;14.50;99.90;;;;;;5073282;28;20536;-51
2022/09/09 00:03:58;;;;;;;1.30;0.60;;;14.40;99.90;;;;;;5073081;28;20448;-51
2022/09/09 00:06:30;;;;;;;1.50;0.90;;;14.50;99.90;;;;;;5073206;28;20883;-50
2022/09/09 00:09:05;;;;;;;2.10;0.60;;;14.20;99.90;;;;;;5072578;28;20488;-50
2022/09/09 00:11:40;;;;;;;1.23;0.50;;;13.90;99.90;;;;;;5073206;28;20558;-52
2022/09/09 00:14:14;;;;;;;1.33;0.80;;;14.10;99.90;;;;;;5073080;28;20539;-50
2022/09/09 00:16:47;;;;;;;1.73;1.17;;;14.20;99.90;;;;;;5072608;28;20885;-50
2022/09/09 00:19:23;;;;;;;4.10;0.80;;;14.20;99.90;;;;;;5070840;28;20548;-50
2022/09/09 00:22:00;;;;;;;2.60;1.00;;;14.30;99.90;;;;;;5073253;28;20493;-50
2022/09/09 00:24:35;;;;;;;2.53;0.90;;;14.40;99.90;;;;;;5072705;28;20455;-51
2022/09/09 00:27:07;;;;;;;1.63;0.80;;;13.60;99.90;;;;;;5072768;28;20554;-52
2022/09/09 00:29:41;;;;;;;3.70;1.23;;;13.20;99.90;;;;;;5072057;28;20993;-50
2022/09/09 00:32:14;;;;;;;1.53;0.90;;;13.30;99.90;;;;;;5072553;28;20468;-51
2022/09/09 00:34:48;;;;;;;1.77;0.70;;;13.70;99.90;;;;;;5072498;28;20862;-51
2022/09/09 00:37:15;;;;;;;2.23;0.93;;;13.70;99.90;;;;;;5072390;28;20925;-51
2022/09/09 00:39:47;;;;;;;1.83;0.80;;;13.20;99.90;;;;;;5071851;28;20497;-50
2022/09/09 00:42:17;;;;;;;2.30;1.00;;;13.40;99.90;;;;;;5072207;28;20860;-50
2022/09/09 00:45:02;;;;;;;1.47;0.80;;;13.70;99.90;;;;;;5072087;28;20432;-50
2022/09/09 00:47:45;;;;;;;2.33;0.70;;;13.80;99.90;;;;;;5072239;28;20623;-50
2022/09/09 00:50:32;;;;;;;1.20;0.70;;;13.90;99.90;;;;;;5071495;28;20545;-50
2022/09/09 00:53:12;;;;;;;2.60;1.00;;;14.00;99.90;;;;;;5072052;28;20445;-51
2022/09/09 00:55:49;;;;;;;4.00;1.00;;;13.90;99.90;;;;;;5071680;28;20487;-51
2022/09/09 00:58:16;;;;;;;1.07;0.60;;;14.10;99.90;;;;;;5072294;28;20531;-50
2022/09/09 01:00:45;;;;;;;1.80;0.80;;;14.00;99.90;;;;;;5071519;28;20865;-50
2022/09/09 01:03:24;;;;;;;1.20;0.90;;;14.20;99.90;;;;;;5072003;28;20442;-50
2022/09/09 01:06:01;;;;;;;2.78;1.00;;;14.40;99.90;;;;;;5071941;28;20232;-53
2022/09/09 01:08:54;;;;;;;2.00;0.70;;;14.40;99.90;;;;;;5072118;28;20198;-50
2022/09/09 01:11:25;;;;;;;1.43;0.97;;;14.60;99.90;;;;;;5072025;28;20530;-50
2022/09/09 01:14:00;;;;;;;2.97;0.80;;;14.30;99.90;;;;;;5071942;28;20440;-50
2022/09/09 01:16:30;;;;;;;1.40;0.80;;;14.10;99.90;;;;;;5072020;28;20498;-50
2022/09/09 01:18:59;;;;;;;1.83;0.63;;;14.20;99.90;;;;;;5069584;28;20544;-51
2022/09/09 01:21:37;;;;;;;3.10;0.90;;;14.00;99.90;;;;;;5071283;28;20230;-50
2022/09/09 01:24:23;;;;;;;2.50;1.20;;;14.20;99.90;;;;;;5071466;28;20198;-52
2022/09/09 01:26:53;;;;;;;1.63;0.90;;;14.40;99.90;;;;;;5071637;28;20567;-50
2022/09/09 01:29:23;;;;;;;1.83;0.80;;;14.50;99.90;;;;;;5070890;28;20450;-50
2022/09/09 01:31:55;;;;;;;3.30;1.02;;;14.40;99.90;;;;;;5071403;28;20219;-50
2022/09/09 01:34:24;;;;;;;1.60;1.00;;;14.40;99.90;;;;;;5071618;28;20194;-50
2022/09/09 01:36:57;;;;;;;5.77;1.00;;;14.30;99.90;;;;;;5071581;28;20539;-52
2022/09/09 01:39:24;;;;;;;4.25;1.10;;;14.30;99.90;;;;;;5070543;28;20481;-50
2022/09/09 01:41:53;;;;;;;1.20;0.70;;;14.10;99.90;;;;;;5071233;28;20418;-50
2022/09/09 01:44:20;;;;;;;1.52;0.88;;;14.20;99.90;;;;;;5071160;28;20493;-50
2022/09/09 01:46:47;;;;;;;2.77;0.70;;;14.40;99.90;;;;;;5071192;28;20317;-50
2022/09/09 01:49:14;;;;;;;1.10;0.50;;;14.50;99.90;;;;;;5070508;28;20501;-50
2022/09/09 01:51:43;;;;;;;1.70;0.80;;;14.60;99.90;;;;;;5071027;28;20545;-50
2022/09/09 01:54:11;;;;;;;1.60;0.80;;;14.60;99.90;;;;;;5071039;28;20449;-50
2022/09/09 01:56:48;;;;;;;3.60;1.50;;;14.60;99.90;;;;;;5070424;28;20495;-52
2022/09/09 01:59:41;;;;;;;2.57;1.10;;;14.20;99.90;;;;;;5070098;28;20565;-51
2022/09/09 02:02:12;;;;;;;1.40;0.80;;;13.80;99.90;;;;;;5070734;28;20483;-50
2022/09/09 02:04:42;;;;;;;1.40;1.03;;;13.80;99.90;;;;;;5070845;28;20583;-51
2022/09/09 02:07:27;;;;;;;1.60;0.90;;;13.80;99.90;;;;;;5070867;28;20514;-51
2022/09/09 02:10:02;;;;;;;1.13;0.63;;;13.70;99.90;;;;;;5070025;28;20890;-50
2022/09/09 02:12:31;;;;;;;1.83;0.60;;;14.10;99.90;;;;;;5070623;28;20501;-50
2022/09/09 02:15:04;;;;;;;2.83;1.33;;;14.40;99.90;;;;;;5070317;28;20868;-50
2022/09/09 02:17:35;;;;;;;1.60;1.10;;;14.60;99.90;;;;;;5069584;28;21058;-52
2022/09/09 02:20:07;;;;;;;1.47;0.70;;;14.70;99.90;;;;;;5069521;28;20518;-52
2022/09/09 02:22:36;;;;;;;1.80;1.23;;;14.50;99.90;;;;;;5070521;28;20480;-51
2022/09/09 02:25:06;;;;;;;1.30;0.60;;;14.40;99.90;;;;;;5070294;28;20512;-50
2022/09/09 02:27:33;;;;;;;1.30;0.60;;;14.50;99.90;;;;;;5070231;28;20429;-50
2022/09/09 02:30:03;;;;;;;1.37;0.67;;;14.50;99.90;;;;;;5069305;28;20924;-51
2022/09/09 02:32:34;;;;;;;1.93;1.00;;;14.40;99.90;;;;;;5069990;28;20468;-50
2022/09/09 02:35:06;;;;;;;2.23;1.17;;;14.50;99.90;;;;;;5070142;28;20496;-50
2022/09/09 02:37:38;;;;;;;1.70;0.87;;;14.50;99.90;;;;;;5069912;28;20891;-50
2022/09/09 02:40:06;;;;;;;1.77;1.37;;;14.40;99.90;;;;;;5069535;28;20807;-51
2022/09/09 02:42:39;;;;;;;3.55;0.75;;;14.40;99.90;;;;;;5069981;28;20827;-52
2022/09/09 02:45:09;;;;;;;1.85;0.90;;;14.50;99.90;;;;;;5069731;28;20222;-51
2022/09/09 02:47:38;;;;;;;1.98;0.93;;;14.60;99.90;;;;;;5069999;28;20201;-50
2022/09/09 02:50:13;;;;;;;3.00;0.77;;;14.60;99.90;;;;;;5069327;28;20670;-50
2022/09/09 02:52:51;;;;;;;1.40;0.80;;;14.70;99.90;;;;;;5069777;28;20475;-50
2022/09/09 02:55:23;;;;;;;2.30;0.97;;;14.60;99.90;;;;;;5069802;28;20576;-50
2022/09/09 02:57:52;;;;;;;4.03;0.70;;;14.60;99.90;;;;;;5069632;28;20536;-51
2022/09/09 03:00:26;;;;;;;2.07;1.10;;;14.40;99.90;;;;;;5069436;28;20505;-49
2022/09/09 03:02:54;;;;;;;1.63;0.80;;;14.30;99.90;;;;;;5070011;28;20476;-50
2022/09/09 03:05:21;;;;;;;2.60;0.90;;;13.90;99.90;;;;;;5070077;28;20882;-49
2022/09/09 03:07:50;;;;;;;3.93;1.30;;;13.50;99.90;;;;;;5070063;28;20452;-51
2022/09/09 03:10:17;;;;;;;1.53;1.00;;;13.40;99.90;;;;;;5069057;28;20520;-51
2022/09/09 03:12:44;;;;;;;1.40;0.90;;;13.80;99.90;;;;;;5069445;28;20559;-50
2022/09/09 03:15:11;;;;;;;4.43;0.97;;;14.00;99.90;;;;;;5069561;28;20525;-50
2022/09/09 03:17:40;;;;;;;3.20;0.90;;;13.50;99.90;;;;;;5068661;28;20459;-50
2022/09/09 03:20:08;;;;;;;2.07;0.80;;;13.60;99.90;;;;;;5068746;28;20425;-49
2022/09/09 03:22:35;;;;;;;3.30;0.80;;;13.80;99.90;;;;;;5069686;28;20444;-50
2022/09/09 03:25:02;;;;;;;1.20;0.90;;;14.00;99.90;;;;;;5069241;28;20526;-49
2022/09/09 03:27:29;;;;;;;1.80;1.10;;;14.10;99.90;;;;;;5069852;28;20493;-50
2022/09/09 03:29:57;;;;;;;2.90;1.10;;;14.10;99.90;;;;;;5068188;28;20452;-49
2022/09/09 03:32:26;;;;;;;1.50;0.80;;;14.30;99.90;;;;;;5068762;28;21038;-52
2022/09/09 03:34:54;;;;;;;1.50;0.80;;;14.10;99.90;;;;;;5069443;28;20472;-50
2022/09/09 03:37:22;;;;;;;2.03;0.80;;;14.10;99.90;;;;;;5069422;28;20522;-49
2022/09/09 03:39:49;;;;;;;2.20;0.90;;;14.30;99.90;;;;;;5068805;28;20441;-51
2022/09/09 03:42:18;;;;;;;1.60;0.90;;;14.40;99.90;;;;;;5069107;28;20440;-49
2022/09/09 03:44:49;;;;;;;1.50;1.17;;;14.50;99.90;;;;;;5069013;28;20928;-50
2022/09/09 03:47:19;;;;;;;1.40;0.80;;;14.40;99.90;;;;;;5069259;28;20436;-49
2022/09/09 03:49:46;;;;;;;1.17;0.73;;;14.20;99.90;;;;;;5068602;28;20493;-49
2022/09/09 03:52:15;;;;;;;1.20;0.67;;;14.20;99.90;;;;;;5069142;28;20468;-50
2022/09/09 03:54:43;;;;;;;2.87;0.80;;;14.40;99.90;;;;;;5069104;28;20477;-50
2022/09/09 03:57:10;;;;;;;3.20;1.17;;;14.50;99.90;;;;;;5068634;28;20452;-51
2022/09/09 03:59:37;;;;;;;2.40;0.90;;;14.50;99.90;;;;;;5068464;28;20428;-50
2022/09/09 04:02:04;;;;;;;3.10;1.50;;;14.30;99.90;;;;;;5069341;28;20471;-51
2022/09/09 04:04:32;;;;;;;1.50;1.00;;;14.50;99.90;;;;;;5068947;28;20452;-50
2022/09/09 04:06:59;;;;;;;1.63;0.97;;;14.60;99.90;;;;;;5068998;28;20429;-50
2022/09/09 04:09:27;;;;;;;3.90;1.13;;;14.50;99.90;;;;;;5068273;28;20444;-50
2022/09/09 04:11:54;;;;;;;1.70;1.00;;;14.40;99.90;;;;;;5068829;28;20464;-50
2022/09/09 04:14:22;;;;;;;3.07;1.00;;;14.40;99.90;;;;;;5068735;28;20941;-49
2022/09/09 04:16:49;;;;;;;1.30;0.90;;;14.30;99.90;;;;;;5068940;28;20522;-51
2022/09/09 04:19:16;;;;;;;1.60;1.10;;;14.50;99.90;;;;;;5067574;28;20437;-51
2022/09/09 04:21:43;;;;;;;1.87;1.07;;;14.70;99.90;;;;;;5068845;28;20446;-49
2022/09/09 04:24:10;;;;;;;1.53;1.07;;;14.80;99.90;;;;;;5068989;28;20452;-49
2022/09/09 04:26:39;;;;;;;2.63;1.17;;;14.80;99.90;;;;;;5069932;28;20457;-50
2022/09/09 04:29:07;;;;;;;1.63;0.87;;;14.70;99.90;;;;;;5068092;28;20439;-51
2022/09/09 04:31:34;;;;;;;2.13;0.90;;;14.60;99.90;;;;;;5069063;28;20464;-49
2022/09/09 04:34:05;;;;;;;1.53;1.10;;;14.60;99.90;;;;;;5068599;28;20432;-49
2022/09/09 04:36:32;;;;;;;1.97;0.83;;;14.30;99.90;;;;;;5068635;28;20484;-51
2022/09/09 04:39:01;;;;;;;1.27;0.97;;;13.70;99.90;;;;;;5068210;28;20548;-50
2022/09/09 04:41:28;;;;;;;6.60;1.50;;;13.90;99.90;;;;;;5068930;28;20519;-50
2022/09/09 04:43:56;;;;;;;1.70;1.00;;;13.80;99.90;;;;;;5072253;28;20432;-50
2022/09/09 04:46:24;;;;;;;1.83;0.97;;;14.00;99.90;;;;;;5072631;28;20847;-49
2022/09/09 04:48:52;;;;;;;2.40;0.83;;;14.40;99.90;;;;;;5071508;28;20503;-50
2022/09/09 04:51:19;;;;;;;2.53;0.90;;;14.60;99.90;;;;;;5072503;28;20468;-51
2022/09/09 04:53:46;;;;;;;2.43;1.10;;;14.60;99.90;;;;;;5072218;28;20536;-50
2022/09/09 04:56:15;;;;;;;1.93;1.30;;;14.60;99.90;;;;;;5071414;28;20455;-52
2022/09/09 04:58:43;;;;;;;2.63;1.10;;;14.60;99.90;;;;;;5071580;28;20480;-48
2022/09/09 05:01:13;;;;;;;2.47;1.27;;;14.40;99.90;;;;;;5071727;28;20433;-49
2022/09/09 05:03:40;;;;;;;1.90;0.90;;;14.30;99.90;;;;;;5072040;28;20946;-50
2022/09/09 05:06:09;;;;;;;1.57;0.87;;;14.30;99.90;;;;;;5071733;28;21004;-50
2022/09/09 05:08:37;;;;;;;1.77;1.20;;;14.40;99.90;;;;;;5071759;28;20459;-49
2022/09/09 05:11:04;;;;;;;2.80;1.13;;;14.20;99.90;;;;;;5071339;28;20460;-50
2022/09/09 05:13:32;;;;;;;2.57;1.77;;;13.60;99.90;;;;;;5071850;28;20837;-50
2022/09/09 05:15:59;;;;;;;3.80;1.70;;;13.20;99.90;;;;;;5071736;28;20543;-49
2022/09/09 05:18:27;;;;;;;3.90;1.60;;;13.20;99.90;;;;;;5070601;28;20726;-49
2022/09/09 05:21:00;;;;;;;4.22;1.70;;;13.60;99.90;;;;;;5071026;28;20948;-50
2022/09/09 05:23:27;;;;;;;3.47;1.70;;;13.70;99.90;;;;;;5071436;28;20649;-51
2022/09/09 05:25:58;;;;;;;4.17;1.87;;;13.90;99.90;;;;;;5070738;28;21064;-50
2022/09/09 05:28:26;;;;;;;2.58;1.65;;;14.10;99.90;;;;;;5071196;28;20993;-51
2022/09/09 05:30:58;;;;;;;2.93;2.07;;;13.60;99.90;;;;;;5070831;28;20265;-49
2022/09/09 05:33:26;;;;;;;3.90;1.85;;;13.30;99.90;;;;;;5071313;28;20571;-49
2022/09/09 05:35:58;;;;;;;2.53;1.90;;;13.20;99.90;;;;;;5071156;28;20287;-50
2022/09/09 05:38:25;;;;;;;2.07;1.30;;;13.20;99.90;;;;;;5071314;28;20514;-49
2022/09/09 05:40:52;;;;;;;2.20;1.33;;;13.60;99.90;;;;;;5070740;28;20543;-52
2022/09/09 05:43:19;;;;;;;2.90;1.53;;;13.90;99.90;;;;;;5071467;28;20996;-49
2022/09/09 05:45:47;;;;;;;2.03;1.03;;;14.00;99.90;;;;;;5070683;28;20984;-50
2022/09/09 05:48:14;;;;;;;1.33;0.88;;;14.10;99.90;;;;;;5071088;28;20953;-49
2022/09/09 05:50:45;;;;;;;1.67;0.90;;;14.20;99.90;;;;;;5070729;28;20194;-50
2022/09/09 05:53:12;;;;;;;2.40;1.37;;;14.40;99.90;;;;;;5070696;28;20477;-50
2022/09/09 05:55:39;;;;;;;2.13;1.30;;;14.50;99.90;;;;;;5070932;28;20468;-50
2022/09/09 05:58:05;;;;;;;2.13;1.07;;;14.70;99.90;;;;;;5071134;28;20506;-50
2022/09/09 06:00:32;;;;;;;2.77;2.30;;;14.50;99.90;;;;;;5070593;28;20448;-50
2022/09/09 06:02:59;;;;;;;2.70;1.80;;;14.50;99.90;;;;;;5071690;28;20479;-50
2022/09/09 06:05:28;;;;;;;4.53;1.73;;;14.10;99.90;;;;;;5070694;28;20920;-50
2022/09/09 06:07:56;;;;;;;2.60;1.80;;;13.70;99.90;;;;;;5070881;28;20505;-48
2022/09/09 06:10:24;;;;;;;2.33;1.60;;;13.50;99.90;;;;;;5070037;28;20486;-49
2022/09/09 06:12:54;;;;;;;2.80;1.60;;;13.50;99.90;;;;;;5070731;28;20480;-49
2022/09/09 06:15:21;;;;;;;2.20;1.77;;;13.70;99.90;;;;;;5070641;28;20460;-49
2022/09/09 06:17:49;;;;;;;2.53;1.50;;;14.10;99.90;;;;;;5069396;28;20450;-49
2022/09/09 06:20:16;;;;;;;2.50;1.47;;;14.20;99.90;;;;;;5069966;28;20454;-50
2022/09/09 06:22:46;;;;;;;2.47;1.80;;;14.40;99.90;;;;;;5070534;28;20468;-50
2022/09/09 06:25:14;;;;;;;2.70;1.80;;;14.40;99.90;;;;;;5070272;28;20872;-50
2022/09/09 06:27:42;;;;;;;2.90;1.27;;;14.50;99.90;;;;;;5070621;28;20519;-50
2022/09/09 06:30:11;;;;;;;1.47;1.27;;;14.40;99.90;;;;;;5069623;28;20441;-49
2022/09/09 06:32:37;;;;;;;2.17;1.40;;;14.40;99.90;;;;;;5070136;28;20472;-50
2022/09/09 06:35:05;;;;;;;1.53;1.07;;;14.30;99.90;;;;;;5070149;28;21047;-49
2022/09/09 06:37:32;;;;;;;2.03;1.33;;;13.90;99.90;;;;;;5070191;28;20573;-49
2022/09/09 06:39:59;;;;;;;3.27;1.30;;;13.60;99.90;;;;;;5069878;28;20448;-50
2022/09/09 06:42:27;;;;;;;4.90;2.27;;;13.60;99.90;;;;;;5070243;28;20969;-50
2022/09/09 06:44:54;;;;;;;2.37;1.40;;;13.80;99.90;;;;;;5069672;28;20472;-51
2022/09/09 06:47:21;;;;;;;2.80;2.20;;;13.90;99.90;;;;;;5070019;28;20458;-49
2022/09/09 06:49:48;;;;;;;3.47;3.07;;;14.10;99.90;;;;;;5069430;28;20488;-51
2022/09/09 06:52:17;;;;;;;2.77;1.90;;;14.10;99.90;;;;;;5069930;28;20546;-50
2022/09/09 06:54:45;;;;;;;4.95;2.40;;;13.90;99.90;;;;;;5070012;28;20433;-51
2022/09/09 06:57:12;;;;;;;2.67;2.47;;;13.90;99.90;;;;;;5070020;28;20259;-49
2022/09/09 06:59:40;;;;;;;2.83;2.07;;;13.90;99.90;;;;;;5069338;28;20473;-49
2022/09/09 07:02:09;;;;;;;2.43;2.03;;;13.70;99.90;;;;;;5069818;28;20445;-51
2022/09/09 07:04:36;;;;;;;2.83;1.50;;;13.70;99.90;;;;;;5069430;28;20436;-51
2022/09/09 07:07:04;;;;;;;1.55;1.25;;;13.90;99.90;;;;;;5069861;28;20524;-50
2022/09/09 07:09:31;;;;;;;1.80;1.03;;;14.00;99.90;;;;;;5068907;28;20281;-50
2022/09/09 07:11:59;;;;;;;1.80;1.20;;;14.00;99.90;;;;;;5069585;28;20472;-49
2022/09/09 07:14:26;;;;;;;3.10;1.40;;;14.10;99.90;;;;;;5069552;28;20436;-51
2022/09/09 07:16:55;;;;;;;2.03;1.43;;;14.30;99.90;;;;;;5069707;28;20448;-49
2022/09/09 07:19:22;;;;;;;2.43;1.70;;;14.40;99.90;;;;;;5067720;28;20983;-51
2022/09/09 07:21:49;;;;;;;6.33;1.90;;;14.40;99.90;;;;;;5069567;28;20482;-49
2022/09/09 07:24:16;;;;;;;5.88;1.63;;;14.50;99.90;;;;;;5069818;28;20767;-49
2022/09/09 07:26:43;;;;;;;3.33;2.00;;;14.60;99.90;;;;;;5069529;28;20226;-49
2022/09/09 07:29:13;;;;;;;2.40;1.90;;;14.60;99.90;;;;;;5068863;28;20456;-50
2022/09/09 07:31:40;;;;;;;1.80;1.37;;;14.60;99.90;;;;;;5069520;28;20903;-49
2022/09/09 07:34:09;;;;;;;5.40;1.50;;;14.50;99.90;;;;;;5069592;28;20507;-49
2022/09/09 07:36:39;;;;;;;2.67;2.03;;;14.40;99.90;;;;;;5069589;28;20499;-50
2022/09/09 07:39:08;;;;;;;2.20;1.80;;;14.30;99.90;;;;;;5068923;28;20901;-49
2022/09/09 07:41:38;;;;;;;3.38;1.60;;;14.50;99.90;;;;;;5069219;28;20435;-51
2022/09/09 07:44:07;;;;;;;2.10;1.33;;;14.60;99.90;;;;;;5069341;28;20194;-49
2022/09/09 07:46:34;;;;;;;2.93;1.90;;;14.70;99.90;;;;;;5069145;28;20474;-49
2022/09/09 07:49:02;;;;;;;3.10;1.60;;;14.70;99.90;;;;;;5068800;28;20944;-51
2022/09/09 07:51:33;;;;;;;3.10;1.63;;;14.60;99.90;;;;;;5069429;28;20847;-50
2022/09/09 07:54:02;;;;;;;3.47;1.60;;;14.70;99.90;;;;;;5069033;28;20476;-49
2022/09/09 07:56:31;;;;;;;1.87;1.63;;;14.60;99.90;;;;;;5069160;28;20464;-51
2022/09/09 07:58:58;;;;;;;3.75;1.58;;;14.50;99.90;;;;;;5068288;28;20443;-49
2022/09/09 08:01:28;;;;;;;3.00;1.57;;;14.60;99.90;;;;;;5069271;28;20597;-50
2022/09/09 08:03:58;;;;;;;5.50;2.83;;;14.80;99.90;;;;;;5069365;28;20472;-49
2022/09/09 08:06:26;;;;;;;3.40;1.60;;;14.90;99.90;;;;;;5069205;28;20667;-49
2022/09/09 08:08:55;;;;;;;3.20;1.70;;;15.00;99.90;;;;;;5068421;28;20437;-50
2022/09/09 08:11:23;;;;;;;3.63;1.93;;;15.00;99.90;;;;;;5069068;28;20451;-49
2022/09/09 08:13:52;;;;;;;3.97;2.00;;;14.80;99.90;;;;;;5068755;28;20504;-49
2022/09/09 08:16:21;;;;;;;1.87;1.47;;;14.60;99.90;;;;;;5068923;28;20472;-49
2022/09/09 08:18:49;;;;;;;2.10;1.87;;;14.60;99.90;;;;;;5071374;28;20440;-49
2022/09/09 08:21:18;;;;;;;2.17;1.60;;;14.60;99.90;;;;;;5072973;28;20940;-51
2022/09/09 08:23:47;;;;;;;4.40;2.10;;;14.80;99.90;;;;;;5072631;28;20436;-50
2022/09/09 08:26:17;;;;;;;3.05;1.80;;;14.80;99.90;;;;;;5072603;28;20709;-51
2022/09/09 08:28:44;;;;;;;3.90;1.83;;;14.80;99.90;;;;;;5072541;28;20256;-50
2022/09/09 08:31:14;;;;;;;3.40;1.57;;;15.00;99.90;;;;;;5073539;28;20475;-50
2022/09/09 08:33:42;;;;;;;3.50;1.77;;;15.20;99.90;;;;;;5073496;28;20567;-51
2022/09/09 08:36:11;;;;;;;2.50;1.85;;;15.10;99.90;;;;;;5072868;28;20526;-50
2022/09/09 08:38:39;;;;;;;3.33;2.30;;;15.00;99.90;;;;;;5073715;28;20664;-49
2022/09/09 08:41:30;;;;;;;4.97;2.60;;;15.00;99.90;;;;;;5072910;28;20517;-50
2022/09/09 08:44:03;;;;;;;2.27;1.47;;;15.00;99.90;;;;;;5072968;28;20479;-49
2022/09/09 08:46:37;;;;;;;4.90;3.80;;;15.10;99.90;;;;;;5071938;28;20835;-51
2022/09/09 08:49:12;;;;;;;3.73;2.80;;;15.10;99.90;;;;;;5072027;28;20472;-50
2022/09/09 08:51:39;;;;;;;2.58;1.63;;;15.20;99.90;;;;;;5072047;28;20862;-50
2022/09/09 08:54:07;;;;;;;1.70;1.30;;;15.00;99.90;;;;;;5072163;28;20275;-50
2022/09/09 08:56:36;;;;;;;5.57;1.83;;;15.10;99.90;;;;;;5072213;28;20460;-49
2022/09/09 08:59:05;;;;;;;2.10;1.90;;;15.10;99.90;;;;;;5071601;28;20441;-50
2022/09/09 09:01:42;;;;;;;3.07;1.67;;;15.20;99.90;;;;;;5072565;28;20463;-52
2022/09/09 09:04:22;;;;;;;5.00;1.83;;;15.40;99.90;;;;;;5072126;28;20428;-51
2022/09/09 09:07:00;;;;;;;3.67;1.83;;;15.30;99.90;;;;;;5073170;28;20608;-52
2022/09/09 09:09:35;;;;;;;3.23;1.83;;;14.90;99.90;;;;;;5071522;28;20480;-50
2022/09/09 09:12:16;;;;;;;4.07;2.67;;;15.10;99.90;;;;;;5072135;28;20521;-51
2022/09/09 09:14:45;;;;;;;2.63;1.50;;;15.00;99.90;;;;;;5072331;28;20424;-50
2022/09/09 09:17:15;;;;;;;2.70;2.00;;;15.20;99.90;;;;;;5071991;28;20510;-48
2022/09/09 09:19:44;;;;;;;2.23;1.40;;;15.30;99.90;;;;;;5072634;28;20456;-51
2022/09/09 09:22:18;;;;;;;6.87;1.83;;;15.20;99.90;;;;;;5073677;28;20444;-50
2022/09/09 09:24:53;;;;;;;2.77;1.73;;;15.20;99.90;;;;;;5073449;28;20479;-50
2022/09/09 09:27:31;;;;;;;2.07;1.47;;;15.30;99.90;;;;;;5073531;28;20448;-51
2022/09/09 09:30:00;;;;;;;4.63;1.50;;;15.30;99.90;;;;;;5071320;28;20921;-51
2022/09/09 09:32:32;;;;;;;1.83;1.40;;;15.60;99.90;;;;;;5073126;28;20922;-50
2022/09/09 09:35:01;;;;;;;1.80;1.27;;;15.60;99.90;;;;;;5073082;28;20270;-51
2022/09/09 09:37:33;;;;;;;2.63;1.50;;;15.70;99.90;;;;;;5073338;28;20456;-51
2022/09/09 09:40:10;;;;;;;2.10;1.50;;;15.70;99.90;;;;;;5072508;28;20508;-50
2022/09/09 09:42:39;;;;;;;4.50;1.50;;;15.70;99.90;;;;;;5073021;28;20448;-52
2022/09/09 09:45:18;;;;;;;2.65;1.55;;;15.70;99.90;;;;;;5071926;28;20490;-50
2022/09/09 09:47:45;;;;;;;2.40;1.30;;;15.70;99.90;;;;;;5072983;28;20222;-50
2022/09/09 09:50:18;;;;;;;2.90;1.30;;;15.80;99.90;;;;;;5072081;28;20504;-50
2022/09/09 09:52:55;;;;;;;1.73;1.63;;;15.80;99.90;;;;;;5072651;28;21038;-50
2022/09/09 09:55:24;;;;;;;1.90;1.30;;;15.80;99.90;;;;;;5072686;28;20543;-50
2022/09/09 09:57:53;;;;;;;2.47;1.90;;;15.80;99.90;;;;;;5072594;28;20922;-50
2022/09/09 10:00:22;;;;;;;2.30;1.80;;;15.80;99.90;;;;;;5072182;28;20459;-51
2022/09/09 10:02:52;;;;;;;1.80;1.30;;;15.80;99.90;;;;;;5072732;28;20507;-50
2022/09/09 10:05:21;;;;;;;1.97;1.43;;;15.80;99.90;;;;;;5072801;28;20226;-50
2022/09/09 10:08:02;;;;;;;2.27;1.40;;;15.70;99.90;;;;;;5072329;28;20992;-51
2022/09/09 10:10:43;;;;;;;2.35;1.30;;;15.70;99.90;;;;;;5072159;28;20450;-50
2022/09/09 10:13:19;;;;;;;1.67;0.90;;;15.80;99.90;;;;;;5072246;28;20234;-50
2022/09/09 10:15:57;;;;;;;1.43;0.90;;;15.80;99.90;;;;;;5072156;28;20444;-51
2022/09/09 10:18:37;;;;;;;2.70;1.40;;;15.80;99.90;;;;;;5070172;28;20978;-50
2022/09/09 10:21:16;;;;;;;2.20;0.90;;;15.90;99.90;;;;;;5069592;28;20485;-50
2022/09/09 10:23:57;;;;;;;3.50;0.97;;;16.00;99.90;;;;;;5070134;28;20198;-50
2022/09/09 10:26:40;;;;;;;1.60;0.90;;;16.10;99.90;;;;;;5071202;28;20472;-51
2022/09/09 10:29:27;;;;;;;2.83;1.10;;;16.10;99.90;;;;;;5069521;28;20812;-50
2022/09/09 10:32:04;;;;;;;1.63;1.03;;;16.00;99.90;;;;;;5068318;28;20490;-51
2022/09/09 10:34:49;;;;;;;2.17;0.80;;;16.10;99.90;;;;;;5070350;28;20845;-50
2022/09/09 10:37:30;;;;;;;2.30;0.90;;;15.90;99.90;;;;;;5068657;28;20455;-51
2022/09/09 10:40:09;;;;;;;3.13;1.02;;;16.00;99.90;;;;;;5067810;28;20481;-51
2022/09/09 10:42:36;;;;;;;1.50;0.90;;;15.90;99.90;;;;;;5071572;28;20190;-50
2022/09/09 10:45:17;;;;;;;1.67;0.80;;;16.10;99.90;;;;;;5071224;28;20456;-51
2022/09/09 10:48:04;;;;;;;1.30;0.80;;;16.00;99.90;;;;;;5071869;28;20483;-50
2022/09/09 10:50:50;;;;;;;3.33;0.80;;;15.80;99.90;;;;;;5070991;28;20510;-50
2022/09/09 10:53:25;;;;;;;2.50;1.00;;;15.60;99.90;;;;;;5071542;28;20528;-50
2022/09/09 10:55:56;;;;;;;1.30;0.90;;;15.70;99.90;;;;;;5071731;28;20290;-50
2022/09/09 10:58:28;;;;;;;1.63;0.80;;;15.80;99.90;;;;;;5070988;28;20206;-50
2022/09/09 11:01:02;;;;;;;1.50;0.90;;;16.00;99.90;;;;;;5069860;28;20229;-50
2022/09/09 11:03:30;;;;;;;1.60;1.10;;;16.10;99.90;;;;;;5071219;28;20472;-50
2022/09/09 11:06:02;;;;;;;1.80;0.90;;;16.10;99.90;;;;;;5070715;28;20460;-51
2022/09/09 11:08:30;;;;;;;1.80;0.77;;;16.10;99.90;;;;;;5071103;28;20448;-50
2022/09/09 11:11:03;;;;;;;1.63;1.00;;;16.10;99.90;;;;;;5070728;28;20486;-50
2022/09/09 11:13:38;;;;;;;1.40;0.73;;;16.30;99.90;;;;;;5071312;28;20219;-50
2022/09/09 11:16:20;;;;;;;2.50;1.00;;;16.30;99.90;;;;;;5071493;28;20516;-51
2022/09/09 11:18:48;;;;;;;3.67;1.10;;;16.20;99.90;;;;;;5070226;28;20502;-49
2022/09/09 11:21:22;;;;;;;2.10;1.00;;;16.20;99.90;;;;;;5071925;28;20190;-49
2022/09/09 11:23:54;;;;;;;1.67;0.97;;;16.30;99.90;;;;;;5072491;28;20505;-51
2022/09/09 11:26:31;;;;;;;1.50;1.00;;;16.20;99.90;;;;;;5071827;28;20913;-49
2022/09/09 11:29:23;;;;;;;1.70;1.10;;;16.20;99.90;;;;;;5070915;28;20529;-50
2022/09/09 11:32:04;;;;;;;1.40;0.95;;;16.20;99.90;;;;;;5071368;28;20432;-49
2022/09/09 11:34:43;;;;;;;1.83;1.00;;;16.20;99.90;;;;;;5071542;28;20217;-49
2022/09/09 11:37:46;;;;;;;1.90;1.00;;;16.20;99.90;;;;;;5071868;28;20459;-49
2022/09/09 11:40:19;;;;;;;2.10;1.10;;;16.10;99.90;;;;;;5028164;28;20966;-49
2022/09/09 11:42:47;;;;;;;1.50;0.90;;;16.20;99.90;;;;;;5071679;28;20780;-49
2022/09/09 11:45:25;;;;;;;1.40;1.00;;;16.20;99.90;;;;;;5070952;28;20456;-50
2022/09/09 11:47:55;;;;;;;1.60;0.90;;;16.20;99.90;;;;;;5071012;28;20559;-49
2022/09/09 11:50:37;;;;;;;1.73;1.00;;;16.20;99.90;;;;;;5070134;28;20531;-50
2022/09/09 11:53:22;;;;;;;3.30;1.43;;;16.40;99.90;;;;;;5074119;28;20437;-49
2022/09/09 11:56:02;;;;;;;1.70;1.13;;;16.40;99.90;;;;;;5075556;28;20452;-51
2022/09/09 11:58:32;;;;;;;2.70;1.40;;;16.40;99.90;;;;;;5075180;28;20439;-49
2022/09/09 12:00:59;;;;;;;2.30;1.57;;;16.10;99.90;;;;;;5074670;28;20855;-50
2022/09/09 12:03:40;;;;;;;1.80;1.20;;;16.20;99.90;;;;;;5075190;28;20472;-50
2022/09/09 12:06:14;;;;;;;2.60;1.70;;;15.90;99.90;;;;;;5075270;28;20509;-49
2022/09/09 12:08:44;;;;;;;1.90;1.40;;;15.70;99.90;;;;;;5074972;28;20450;-49
2022/09/09 12:11:12;;;;;;;4.90;1.70;;;15.90;99.90;;;;;;5075438;28;20444;-50
2022/09/09 12:13:39;;;;;;;2.07;1.30;;;15.90;99.90;;;;;;5074494;28;20484;-50
2022/09/09 12:16:06;;;;;;;1.40;1.00;;;16.00;99.90;;;;;;5074911;28;20452;-51
2022/09/09 12:18:37;;;;;;;1.80;1.50;;;15.90;99.90;;;;;;5075175;28;20452;-50
2022/09/09 12:21:12;;;;;;;1.52;1.35;;;16.00;99.90;;;;;;5077703;28;20463;-52
2022/09/09 12:23:48;;;;;;;2.35;1.27;;;16.00;99.90;;;;;;5076964;28;20245;-48
2022/09/09 12:26:29;;;;;;;2.00;1.20;;;15.80;99.90;;;;;;5075163;28;20226;-49
2022/09/09 12:29:24;;;;;;;2.43;1.30;;;15.90;99.90;;;;;;5074003;28;20487;-49
2022/09/09 12:32:00;;;;;;;2.47;1.60;;;16.00;99.90;;;;;;5074210;28;20498;-50
2022/09/09 12:34:37;;;;;;;1.70;1.50;;;15.80;99.90;;;;;;5076136;28;20562;-48
2022/09/09 12:37:09;;;;;;;3.27;1.80;;;15.80;99.90;;;;;;5074415;28;20974;-49
2022/09/09 12:39:45;;;;;;;3.03;1.37;;;16.00;99.90;;;;;;5073854;28;20491;-49
2022/09/09 12:42:18;;;;;;;1.60;1.50;;;16.00;99.90;;;;;;5074049;28;20451;-52
2022/09/09 12:44:52;;;;;;;2.20;2.00;;;16.10;99.90;;;;;;5074077;28;20475;-51
2022/09/09 12:47:22;;;;;;;1.88;1.58;;;16.10;99.90;;;;;;5074413;28;20852;-50
2022/09/09 12:49:51;;;;;;;2.50;1.97;;;16.10;99.90;;;;;;5073647;28;20391;-50
2022/09/09 12:52:26;;;;;;;2.80;1.80;;;16.20;99.90;;;;;;5073687;28;20452;-50
2022/09/09 12:54:55;;;;;;;4.90;2.50;;;16.20;99.90;;;;;;5080010;28;20510;-49
2022/09/09 12:57:25;;;;;;;4.40;2.47;;;16.20;99.90;;;;;;5078183;28;20452;-50
2022/09/09 12:59:53;;;;;;;2.37;1.80;;;16.10;99.90;;;;;;5075262;28;20471;-49
2022/09/09 13:02:22;;;;;;;2.33;1.87;;;16.10;99.90;;;;;;5074286;28;20475;-50
2022/09/09 13:04:52;;;;;;;3.83;2.00;;;16.00;99.90;;;;;;5078014;28;20480;-51
2022/09/09 13:07:20;;;;;;;2.23;1.83;;;16.00;99.90;;;;;;5079866;28;20507;-50
2022/09/09 13:09:48;;;;;;;2.72;1.98;;;15.90;99.90;;;;;;5078302;28;20910;-51